SULAYMANIYAH INTERNATIONAL AIRPORT
  • SulyAir
  • SulyAir
1 1
Arrival

ArrivalsMore >>

Departure

DeparturesMore >>

TAF

TAF ORSU 260500Z 2606/2706 04012G22KT CAVOK
BECMG 2611/2613 24005KT
BECMG 2620/2622 03010KT=

METARs

METAR ORSU 260800Z 04017KT CAVOK 32/07 Q1015=